createdAt,value
2023-01-06T00:00:30.531Z,6.32
2023-01-06T00:02:57.312Z,5.70
2023-01-06T00:05:24.128Z,7.85
2023-01-06T00:07:53.866Z,14.88
2023-01-06T00:10:20.770Z,11.23
2023-01-06T00:12:48.378Z,7.07
2023-01-06T00:15:15.716Z,7.38
2023-01-06T00:17:42.617Z,6.63
2023-01-06T00:20:10.118Z,7.90
2023-01-06T00:22:38.639Z,9.30
2023-01-06T00:25:05.692Z,6.78
2023-01-06T00:27:33.661Z,8.40
2023-01-06T00:30:00.462Z,10.25
2023-01-06T00:32:27.174Z,8.00
2023-01-06T00:34:53.907Z,7.88
2023-01-06T00:37:20.761Z,11.38
2023-01-06T00:39:47.492Z,8.00
2023-01-06T00:42:14.245Z,10.13
2023-01-06T00:44:41.090Z,4.70
2023-01-06T00:47:09.476Z,4.55
2023-01-06T00:49:36.456Z,11.52
2023-01-06T00:52:03.568Z,5.60
2023-01-06T00:54:30.393Z,12.27
2023-01-06T00:56:57.115Z,7.40
2023-01-06T00:59:25.557Z,7.82
2023-01-06T01:01:55.849Z,4.65
2023-01-06T01:04:23.417Z,6.70
2023-01-06T01:06:50.637Z,7.47
2023-01-06T01:09:22.692Z,8.43
2023-01-06T01:12:08.410Z,8.05
2023-01-06T01:14:35.600Z,5.80
2023-01-06T01:17:02.399Z,10.25
2023-01-06T01:19:29.311Z,7.13
2023-01-06T01:21:56.138Z,7.80
2023-01-06T01:24:22.951Z,8.60
2023-01-06T01:26:49.840Z,9.27
2023-01-06T01:29:17.483Z,10.38
2023-01-06T01:31:44.466Z,7.30
2023-01-06T01:34:12.062Z,9.18
2023-01-06T01:36:40.862Z,7.97
2023-01-06T01:39:07.851Z,8.50
2023-01-06T01:41:34.617Z,15.45
2023-01-06T01:44:03.488Z,10.57
2023-01-06T01:46:36.803Z,10.85
2023-01-06T01:49:14.263Z,9.07
2023-01-06T01:51:43.182Z,9.45
2023-01-06T01:54:13.192Z,6.60
2023-01-06T01:56:43.060Z,7.43
2023-01-06T01:59:12.313Z,8.25
2023-01-06T02:01:39.268Z,5.90
2023-01-06T02:04:06.068Z,5.20
2023-01-06T02:06:33.003Z,7.20
2023-01-06T02:09:35.912Z,4.43
2023-01-06T02:12:02.653Z,5.65
2023-01-06T02:14:29.679Z,6.40
2023-01-06T02:17:05.440Z,9.18
2023-01-06T02:19:56.448Z,7.10
2023-01-06T02:22:52.684Z,5.85
2023-01-06T02:25:38.127Z,6.78
2023-01-06T02:28:42.452Z,8.23
2023-01-06T02:31:39.958Z,11.50
2023-01-06T02:34:44.553Z,11.18
2023-01-06T02:37:39.509Z,6.47
2023-01-06T02:40:44.370Z,5.80
2023-01-06T02:43:15.475Z,9.57
2023-01-06T02:45:48.660Z,10.73
2023-01-06T02:48:21.317Z,5.10
2023-01-06T02:51:18.848Z,5.53
2023-01-06T02:53:57.493Z,5.47
2023-01-06T02:56:25.310Z,9.65
2023-01-06T02:59:01.148Z,11.90
2023-01-06T03:01:36.802Z,9.70
2023-01-06T03:04:06.257Z,12.23
2023-01-06T03:06:33.263Z,10.13
2023-01-06T03:09:00.112Z,8.80
2023-01-06T03:11:27.789Z,10.90
2023-01-06T03:14:05.012Z,7.22
2023-01-06T03:16:31.785Z,13.15
2023-01-06T03:18:58.545Z,9.05
2023-01-06T03:21:27.499Z,11.40
2023-01-06T03:23:54.219Z,10.75
2023-01-06T03:26:20.966Z,9.32
2023-01-06T03:28:47.642Z,10.38
2023-01-06T03:31:21.068Z,12.82
2023-01-06T03:34:02.813Z,7.40
2023-01-06T03:36:36.282Z,10.48
2023-01-06T03:39:16.414Z,9.40
2023-01-06T03:42:06.098Z,13.88
2023-01-06T03:44:45.274Z,11.38
2023-01-06T03:47:39.417Z,7.53
2023-01-06T03:50:49.835Z,12.18
2023-01-06T03:53:31.296Z,12.35
2023-01-06T03:56:06.447Z,10.77
2023-01-06T03:58:33.165Z,12.52
2023-01-06T04:01:00.238Z,11.00
2023-01-06T04:03:27.078Z,8.50
2023-01-06T04:05:54.563Z,7.13
2023-01-06T04:08:21.325Z,11.32
2023-01-06T04:10:48.131Z,10.05
2023-01-06T04:13:14.815Z,11.18
2023-01-06T04:15:42.337Z,15.57
2023-01-06T04:18:09.156Z,11.20
2023-01-06T04:20:35.938Z,12.18
2023-01-06T04:23:02.696Z,7.53
2023-01-06T04:25:29.451Z,7.32
2023-01-06T04:27:56.219Z,19.42
2023-01-06T04:30:22.981Z,18.92
2023-01-06T04:32:49.729Z,14.02
2023-01-06T04:35:16.531Z,8.23
2023-01-06T04:37:43.227Z,8.27
2023-01-06T04:40:10.448Z,8.18
2023-01-06T04:42:55.693Z,8.15
2023-01-06T04:45:22.866Z,6.95
2023-01-06T04:47:49.670Z,9.07
2023-01-06T04:50:16.529Z,9.02
2023-01-06T04:52:43.277Z,15.30
2023-01-06T04:55:10.044Z,14.82
2023-01-06T04:57:36.802Z,10.63
2023-01-06T05:00:04.628Z,9.32
2023-01-06T05:02:31.434Z,10.70
2023-01-06T05:04:58.142Z,9.35
2023-01-06T05:07:24.912Z,7.65
2023-01-06T05:09:51.630Z,8.43
2023-01-06T05:12:18.376Z,9.70
2023-01-06T05:14:45.087Z,7.63
2023-01-06T05:17:11.778Z,12.35
2023-01-06T05:19:38.585Z,8.55
2023-01-06T05:22:05.338Z,9.32
2023-01-06T05:24:32.031Z,12.10
2023-01-06T05:26:58.842Z,13.25
2023-01-06T05:29:25.532Z,10.63
2023-01-06T05:31:52.296Z,11.40
2023-01-06T05:34:19.050Z,12.50
2023-01-06T05:36:45.771Z,11.77
2023-01-06T05:39:12.544Z,7.75
2023-01-06T05:41:39.243Z,4.38
2023-01-06T05:44:06.028Z,9.07
2023-01-06T05:46:32.808Z,10.23
2023-01-06T05:49:00.746Z,8.80
2023-01-06T05:51:27.533Z,17.02
2023-01-06T05:53:54.236Z,7.55
2023-01-06T05:56:21.446Z,12.23
2023-01-06T05:58:52.606Z,13.45
2023-01-06T06:01:28.343Z,7.00
2023-01-06T06:03:55.412Z,11.20
2023-01-06T06:06:23.067Z,6.45
2023-01-06T06:08:49.905Z,15.23
2023-01-06T06:11:17.479Z,10.88
2023-01-06T06:13:48.261Z,10.25
2023-01-06T06:16:15.671Z,14.68
2023-01-06T06:18:43.033Z,8.98
2023-01-06T06:21:17.782Z,16.20
2023-01-06T06:23:44.597Z,12.90
2023-01-06T06:26:11.578Z,12.93
2023-01-06T06:28:38.519Z,9.45
2023-01-06T06:31:10.051Z,11.48
2023-01-06T06:33:36.863Z,15.73
2023-01-06T06:36:03.981Z,7.55
2023-01-06T06:38:30.695Z,10.07
2023-01-06T06:40:57.497Z,13.20
2023-01-06T06:43:24.403Z,16.35
2023-01-06T06:45:51.187Z,8.93
2023-01-06T06:48:17.945Z,6.90
2023-01-06T06:50:44.817Z,12.85
2023-01-06T06:53:11.577Z,12.15
2023-01-06T06:55:38.400Z,12.98
2023-01-06T06:58:05.108Z,13.77
2023-01-06T07:00:33.017Z,9.35
2023-01-06T07:02:59.792Z,11.65
2023-01-06T07:05:26.750Z,14.60
2023-01-06T07:07:53.456Z,13.32
2023-01-06T07:10:20.270Z,11.43
2023-01-06T07:12:47.313Z,6.93
2023-01-06T07:15:14.156Z,13.40
2023-01-06T07:17:41.945Z,15.25
2023-01-06T07:20:09.568Z,10.90
2023-01-06T07:22:39.833Z,14.88
2023-01-06T07:25:07.672Z,7.20
2023-01-06T07:27:34.528Z,9.15
2023-01-06T07:30:01.552Z,11.95
2023-01-06T07:32:28.266Z,10.07
2023-01-06T07:34:55.180Z,11.27
2023-01-06T07:37:22.249Z,9.98
2023-01-06T07:39:48.944Z,15.70
2023-01-06T07:42:15.648Z,8.75
2023-01-06T07:44:42.379Z,15.05
2023-01-06T07:47:10.548Z,7.75
2023-01-06T07:49:38.514Z,11.98
2023-01-06T07:52:05.377Z,13.07
2023-01-06T07:54:32.207Z,12.18
2023-01-06T07:56:59.100Z,9.88
2023-01-06T07:59:26.066Z,9.30
2023-01-06T08:01:53.196Z,10.65
2023-01-06T08:04:20.044Z,10.77
2023-01-06T08:06:46.869Z,11.43
2023-01-06T08:09:13.675Z,11.27
2023-01-06T08:11:40.471Z,7.50
2023-01-06T08:14:08.492Z,12.75
2023-01-06T08:16:35.256Z,13.70
2023-01-06T08:19:04.261Z,10.45
2023-01-06T08:21:31.093Z,7.22
2023-01-06T08:23:57.866Z,14.20
2023-01-06T08:26:24.602Z,10.88
2023-01-06T08:28:51.777Z,6.22
2023-01-06T08:31:19.856Z,13.30
2023-01-06T08:33:46.973Z,8.52
2023-01-06T08:36:15.760Z,10.07
2023-01-06T08:38:42.790Z,9.63
2023-01-06T08:41:09.779Z,8.18
2023-01-06T08:43:36.642Z,10.98
2023-01-06T08:46:05.246Z,8.98
2023-01-06T08:48:32.590Z,8.57
2023-01-06T08:51:11.546Z,9.80
2023-01-06T08:53:38.439Z,11.32
2023-01-06T08:56:05.369Z,10.82
2023-01-06T08:58:32.147Z,9.60
2023-01-06T09:00:58.981Z,9.88
2023-01-06T09:03:25.714Z,7.65
2023-01-06T09:05:56.394Z,13.10
2023-01-06T09:08:23.334Z,10.63
2023-01-06T09:10:50.850Z,6.65
2023-01-06T09:13:17.642Z,8.52
2023-01-06T09:15:45.111Z,7.63
2023-01-06T09:18:12.383Z,10.15
2023-01-06T09:20:39.126Z,7.68
2023-01-06T09:23:05.867Z,5.57
2023-01-06T09:25:32.618Z,6.63
2023-01-06T09:27:59.375Z,4.97
2023-01-06T09:30:26.210Z,8.85
2023-01-06T09:32:52.962Z,7.70
2023-01-06T09:35:19.738Z,6.38
2023-01-06T09:37:46.504Z,11.23
2023-01-06T09:40:18.037Z,12.43
2023-01-06T09:43:15.213Z,12.85
2023-01-06T09:45:45.794Z,12.13
2023-01-06T09:48:16.161Z,13.60
2023-01-06T09:50:45.823Z,12.88
2023-01-06T09:53:25.853Z,15.05
2023-01-06T09:55:57.904Z,13.27
2023-01-06T09:58:31.506Z,16.17
2023-01-06T10:00:58.243Z,9.95
2023-01-06T10:03:26.183Z,11.88
2023-01-06T10:06:11.113Z,8.43
2023-01-06T10:08:58.857Z,11.98
2023-01-06T10:11:27.562Z,15.32
2023-01-06T10:21:46.155Z,12.80
2023-01-06T10:24:27.187Z,11.10
2023-01-06T10:27:48.403Z,12.68
2023-01-06T10:33:39.605Z,7.28
2023-01-06T10:36:12.463Z,6.03
2023-01-06T10:38:42.258Z,8.68
2023-01-06T10:41:13.888Z,8.10
2023-01-06T10:43:40.674Z,8.85
2023-01-06T10:46:07.478Z,4.97
2023-01-06T10:48:34.288Z,6.70
2023-01-06T10:51:39.480Z,9.23
2023-01-06T10:54:14.187Z,7.60
2023-01-06T10:57:01.571Z,8.73
2023-01-06T10:59:32.645Z,11.30
2023-01-06T11:01:59.861Z,7.53
2023-01-06T11:04:29.304Z,10.18
2023-01-06T11:07:00.122Z,6.38
2023-01-06T11:09:41.969Z,7.00
2023-01-06T11:12:17.212Z,5.63
2023-01-06T11:14:46.947Z,5.50
2023-01-06T11:17:15.108Z,7.43
2023-01-06T11:19:43.835Z,6.35
2023-01-06T11:22:40.626Z,5.40
2023-01-06T11:25:32.239Z,12.07
2023-01-06T11:28:13.768Z,7.00
2023-01-06T11:30:48.139Z,6.57
2023-01-06T11:33:22.532Z,5.55
2023-01-06T11:35:49.472Z,7.10
2023-01-06T11:38:17.926Z,11.77
2023-01-06T11:40:46.402Z,11.68
2023-01-06T11:43:30.912Z,8.43
2023-01-06T11:45:59.495Z,8.70
2023-01-06T11:48:33.648Z,9.07
2023-01-06T11:51:05.239Z,5.25
2023-01-06T11:53:33.516Z,11.20
2023-01-06T11:56:04.838Z,12.63
2023-01-06T11:58:38.758Z,5.47
2023-01-06T12:01:36.427Z,7.57
2023-01-06T12:04:20.134Z,5.82
2023-01-06T12:06:54.088Z,6.30
2023-01-06T12:09:28.711Z,6.38
2023-01-06T12:11:59.643Z,8.73
2023-01-06T12:14:33.273Z,6.15
2023-01-06T12:17:34.458Z,8.50
2023-01-06T12:23:01.566Z,4.68
2023-01-06T12:25:44.501Z,7.55
2023-01-06T12:28:21.719Z,4.15
2023-01-06T12:31:13.973Z,11.32
2023-01-06T12:33:52.769Z,8.93
2023-01-06T12:36:42.837Z,7.72
2023-01-06T12:39:56.108Z,6.40
2023-01-06T12:42:34.745Z,7.23
2023-01-06T12:45:23.638Z,6.70
2023-01-06T12:47:54.210Z,8.23
2023-01-06T12:51:00.099Z,8.80
2023-01-06T12:53:28.522Z,6.15
2023-01-06T12:56:26.049Z,5.90
2023-01-06T12:59:33.155Z,8.02
2023-01-06T13:02:14.950Z,4.15
2023-01-06T13:05:12.959Z,6.00
2023-01-06T13:07:42.556Z,7.03
2023-01-06T13:10:20.520Z,7.18
2023-01-06T13:13:18.820Z,6.25
2023-01-06T13:15:45.650Z,7.78
2023-01-06T13:18:46.979Z,6.70
2023-01-06T13:21:18.758Z,6.70
2023-01-06T13:24:03.624Z,3.10
2023-01-06T13:26:49.009Z,4.03
2023-01-06T13:29:27.720Z,7.43
2023-01-06T13:32:12.212Z,6.25
2023-01-06T13:34:48.044Z,4.88
2023-01-06T13:37:35.583Z,6.40
2023-01-06T13:40:11.375Z,5.53
2023-01-06T13:42:58.624Z,4.10
2023-01-06T13:45:34.399Z,3.72
2023-01-06T13:48:07.162Z,6.47
2023-01-06T13:50:33.948Z,3.45
2023-01-06T13:53:10.392Z,3.28
2023-01-06T13:55:46.845Z,4.18
2023-01-06T13:58:37.181Z,3.85
2023-01-06T14:01:19.247Z,3.88
2023-01-06T14:03:47.580Z,4.88
2023-01-06T14:06:23.471Z,5.47
2023-01-06T14:08:59.886Z,4.10
2023-01-06T14:11:30.309Z,5.82
2023-01-06T14:14:01.286Z,5.22
2023-01-06T14:16:45.913Z,10.25
2023-01-06T14:19:16.238Z,4.88
2023-01-06T14:21:42.972Z,6.80
2023-01-06T14:24:20.790Z,5.28
2023-01-06T14:26:51.870Z,6.68
2023-01-06T14:29:43.482Z,6.15
2023-01-06T14:32:18.988Z,4.63
2023-01-06T14:34:54.837Z,6.78
2023-01-06T14:37:24.925Z,6.35
2023-01-06T14:39:57.919Z,6.18
2023-01-06T14:42:41.149Z,6.97
2023-01-06T14:45:17.629Z,4.60
2023-01-06T14:47:54.594Z,4.35
2023-01-06T14:50:38.285Z,4.38
2023-01-06T14:53:36.000Z,3.28
2023-01-06T14:56:02.778Z,8.10
2023-01-06T14:58:41.717Z,4.97
2023-01-06T15:01:24.842Z,5.72
2023-01-06T15:04:01.519Z,4.95
2023-01-06T15:06:28.901Z,4.30
2023-01-06T15:08:59.267Z,4.15
2023-01-06T15:11:26.065Z,6.40
2023-01-06T15:13:53.004Z,5.60
2023-01-06T15:16:19.798Z,5.30
2023-01-06T15:18:47.002Z,7.82
2023-01-06T15:21:14.017Z,7.68
2023-01-06T15:23:45.435Z,5.75
2023-01-06T15:26:26.589Z,6.03
2023-01-06T15:29:02.248Z,8.00
2023-01-06T15:31:32.110Z,5.63
2023-01-06T15:34:01.512Z,6.93
2023-01-06T15:36:28.279Z,6.97
2023-01-06T15:38:55.055Z,6.68
2023-01-06T15:41:33.839Z,9.02
2023-01-06T15:44:01.286Z,7.88
2023-01-06T15:46:35.271Z,7.82
2023-01-06T15:49:02.046Z,7.85
2023-01-06T15:51:28.829Z,8.38
2023-01-06T15:53:56.620Z,6.05
2023-01-06T15:56:24.868Z,6.82
2023-01-06T15:58:52.849Z,7.28
2023-01-06T16:01:23.334Z,7.43
2023-01-06T16:03:57.362Z,9.90
2023-01-06T16:06:40.911Z,7.93
2023-01-06T16:09:37.900Z,9.38
2023-01-06T16:12:22.847Z,9.45
2023-01-06T16:14:50.368Z,11.25
2023-01-06T16:17:29.617Z,14.88
2023-01-06T16:20:00.795Z,16.85
2023-01-06T16:22:38.606Z,11.43
2023-01-06T16:25:23.435Z,11.35
2023-01-06T16:27:52.288Z,11.40
2023-01-06T16:30:24.447Z,16.23
2023-01-06T16:32:52.756Z,13.23
2023-01-06T16:35:23.860Z,15.70
2023-01-06T16:37:50.697Z,14.55
2023-01-06T16:40:19.427Z,16.33
2023-01-06T16:42:46.460Z,16.48
2023-01-06T16:45:35.335Z,15.15
2023-01-06T16:48:02.113Z,12.55
2023-01-06T16:50:38.278Z,15.70
2023-01-06T16:53:10.826Z,11.75
2023-01-06T16:55:38.510Z,14.60
2023-01-06T16:58:22.141Z,9.63
2023-01-06T17:00:54.423Z,10.63
2023-01-06T17:03:23.009Z,11.80
2023-01-06T17:05:50.273Z,11.25
2023-01-06T17:08:21.872Z,9.77
2023-01-06T17:10:48.608Z,15.40
2023-01-06T17:13:34.025Z,17.00
2023-01-06T17:16:12.076Z,14.27
2023-01-06T17:18:51.585Z,11.45
2023-01-06T17:21:34.982Z,15.40
2023-01-06T17:26:31.496Z,8.00
2023-01-06T17:28:58.595Z,12.85
2023-01-06T17:31:35.525Z,13.07
2023-01-06T17:34:21.982Z,10.65
2023-01-06T17:36:50.892Z,5.43
2023-01-06T17:39:17.578Z,4.85
2023-01-06T17:41:46.481Z,3.50
2023-01-06T17:44:17.863Z,3.28
2023-01-06T17:46:44.713Z,4.07
2023-01-06T17:49:17.481Z,3.05
2023-01-06T17:51:44.410Z,4.25
2023-01-06T17:54:41.786Z,4.00
2023-01-06T17:57:21.254Z,2.78
2023-01-06T17:59:55.533Z,3.65
2023-01-06T18:02:44.215Z,3.90
2023-01-06T18:05:26.401Z,4.15
2023-01-06T18:07:54.267Z,4.53
2023-01-06T18:10:21.174Z,3.67
2023-01-06T18:12:47.924Z,3.65
2023-01-06T18:15:26.849Z,3.78
2023-01-06T18:17:54.449Z,3.25
2023-01-06T18:20:21.784Z,3.63
2023-01-06T18:22:48.531Z,2.90
2023-01-06T18:25:24.740Z,3.47
2023-01-06T18:27:51.551Z,2.47
2023-01-06T18:30:24.790Z,3.75
2023-01-06T18:32:51.876Z,4.88
2023-01-06T18:35:21.448Z,2.80
2023-01-06T18:37:48.429Z,2.72
2023-01-06T18:40:25.583Z,5.53
2023-01-06T18:42:53.124Z,5.07
2023-01-06T18:45:32.199Z,4.00
2023-01-06T18:48:16.780Z,3.65
2023-01-06T18:50:44.725Z,4.10
2023-01-06T18:53:14.535Z,6.13
2023-01-06T18:55:47.355Z,7.00
2023-01-06T18:58:33.142Z,7.63
2023-01-06T19:01:12.294Z,5.45
2023-01-06T19:03:40.921Z,5.25
2023-01-06T19:06:11.800Z,4.85
2023-01-06T19:08:39.904Z,4.53
2023-01-06T19:11:17.929Z,5.40
2023-01-06T19:13:47.573Z,3.72
2023-01-06T19:16:52.898Z,3.65
2023-01-06T19:19:25.240Z,5.30
2023-01-06T19:21:52.381Z,5.30
2023-01-06T19:24:28.606Z,4.10
2023-01-06T19:26:56.547Z,3.08
2023-01-06T19:29:32.591Z,3.28
2023-01-06T19:32:01.511Z,2.67
2023-01-06T19:34:29.578Z,6.60
2023-01-06T19:36:58.162Z,4.47
2023-01-06T19:39:37.161Z,6.80
2023-01-06T19:42:22.262Z,4.78
2023-01-06T19:44:51.993Z,3.20
2023-01-06T19:47:22.177Z,4.22
2023-01-06T19:49:56.071Z,5.40
2023-01-06T19:52:35.230Z,4.95
2023-01-06T19:55:14.656Z,4.90
2023-01-06T19:57:43.694Z,4.50
2023-01-06T20:00:26.048Z,4.45
2023-01-06T20:02:54.693Z,3.45
2023-01-06T20:05:21.508Z,5.95
2023-01-06T20:07:50.701Z,3.90
2023-01-06T20:10:35.066Z,4.30
2023-01-06T20:13:10.258Z,5.72
2023-01-06T20:15:47.394Z,5.10
2023-01-06T20:18:17.275Z,6.13
2023-01-06T20:20:44.061Z,5.93
2023-01-06T20:23:14.226Z,6.95
2023-01-06T20:25:45.537Z,5.00
2023-01-06T20:28:14.644Z,5.45
2023-01-06T20:30:46.444Z,8.68
2023-01-06T20:33:18.406Z,7.13
2023-01-06T20:35:45.189Z,6.68
2023-01-06T20:38:12.223Z,6.18
2023-01-06T20:40:45.399Z,9.07
2023-01-06T20:45:50.346Z,9.52
2023-01-06T20:48:19.725Z,8.07
2023-01-06T20:50:50.704Z,9.43
2023-01-06T20:53:18.340Z,10.88
2023-01-06T20:55:45.203Z,7.97
2023-01-06T20:58:13.391Z,9.93
2023-01-06T21:00:40.846Z,8.23
2023-01-06T21:03:07.820Z,10.23
2023-01-06T21:05:35.495Z,9.48
2023-01-06T21:08:02.707Z,10.82
2023-01-06T21:10:30.002Z,9.57
2023-01-06T21:12:58.365Z,11.27
2023-01-06T21:15:28.635Z,9.43
2023-01-06T21:18:01.080Z,9.93
2023-01-06T21:20:28.166Z,9.43
2023-01-06T21:22:54.867Z,10.57
2023-01-06T21:25:21.624Z,9.45
2023-01-06T21:27:48.766Z,8.15
2023-01-06T21:30:17.854Z,7.22
2023-01-06T21:32:44.803Z,8.70
2023-01-06T21:35:11.576Z,7.78
2023-01-06T21:37:38.502Z,8.50
2023-01-06T21:40:08.198Z,6.35
2023-01-06T21:42:53.745Z,7.35
2023-01-06T21:45:20.550Z,8.15
2023-01-06T21:47:47.639Z,6.30
2023-01-06T21:50:14.545Z,7.88
2023-01-06T21:52:41.299Z,8.63
2023-01-06T21:55:08.564Z,6.78
2023-01-06T21:57:36.168Z,7.70
2023-01-06T22:00:04.916Z,7.55
2023-01-06T22:02:31.789Z,6.93
2023-01-06T22:04:58.613Z,6.22
2023-01-06T22:07:25.493Z,7.68
2023-01-06T22:09:52.282Z,6.53
2023-01-06T22:12:19.133Z,6.32
2023-01-06T22:14:46.084Z,5.30
2023-01-06T22:17:12.824Z,6.45
2023-01-06T22:19:39.946Z,6.18
2023-01-06T22:22:07.059Z,5.72
2023-01-06T22:24:33.876Z,4.82
2023-01-06T22:27:00.691Z,4.60
2023-01-06T22:29:27.438Z,5.78
2023-01-06T22:31:54.193Z,4.78
2023-01-06T22:34:20.924Z,5.50
2023-01-06T22:36:47.667Z,6.88
2023-01-06T22:39:14.432Z,5.68
2023-01-06T22:41:41.180Z,14.10
2023-01-06T22:44:07.954Z,4.45
2023-01-06T22:46:34.741Z,4.30
2023-01-06T22:49:01.536Z,5.38
2023-01-06T22:51:28.773Z,5.22
2023-01-06T22:53:57.103Z,4.28
2023-01-06T22:56:24.415Z,3.92
2023-01-06T22:58:51.189Z,4.88
2023-01-06T23:01:18.109Z,4.07
2023-01-06T23:03:45.011Z,3.95
2023-01-06T23:06:13.402Z,4.35
2023-01-06T23:08:51.076Z,3.38
2023-01-06T23:11:22.703Z,3.97
2023-01-06T23:13:53.796Z,4.05
2023-01-06T23:16:22.295Z,4.10
2023-01-06T23:18:49.380Z,3.60
2023-01-06T23:21:19.938Z,3.40
2023-01-06T23:23:48.471Z,3.75
2023-01-06T23:26:17.927Z,4.00
2023-01-06T23:28:44.794Z,5.00
2023-01-06T23:31:16.214Z,4.00
2023-01-06T23:33:44.763Z,3.40
2023-01-06T23:36:12.406Z,4.65
2023-01-06T23:38:40.877Z,4.07
2023-01-06T23:41:10.110Z,4.80
2023-01-06T23:43:37.432Z,4.38
2023-01-06T23:46:09.881Z,3.53
2023-01-06T23:48:36.668Z,5.10
2023-01-06T23:51:03.691Z,4.40
2023-01-06T23:53:30.873Z,3.45
2023-01-06T23:56:17.185Z,4.07
2023-01-06T23:58:45.367Z,4.15
